createdAt,value
2022-10-23T00:01:48.195Z,99865.46
2022-10-23T00:04:52.962Z,99866.38
2022-10-23T00:08:02.473Z,99869.27
2022-10-23T00:11:10.633Z,99877.08
2022-10-23T00:14:19.881Z,99878.45
2022-10-23T00:17:26.709Z,99887.71
2022-10-23T00:20:30.178Z,99890.48
2022-10-23T00:23:34.011Z,99891.23
2022-10-23T00:26:39.648Z,99888.52
2022-10-23T00:29:44.972Z,99890.14
2022-10-23T00:32:48.047Z,99886.71
2022-10-23T00:35:50.918Z,99883.05
2022-10-23T00:38:54.603Z,99889.21
2022-10-23T00:41:57.781Z,99889.73
2022-10-23T00:45:33.638Z,99891.35
2022-10-23T00:48:36.475Z,99890.27
2022-10-23T00:51:49.903Z,99897.66
2022-10-23T00:54:53.060Z,99898.25
2022-10-23T00:57:56.338Z,99902.11
2022-10-23T01:00:59.136Z,99901.08
2022-10-23T01:04:04.869Z,99904.10
2022-10-23T01:07:28.790Z,99904.81
2022-10-23T01:10:40.668Z,99906.98
2022-10-23T01:13:46.230Z,99909.05
2022-10-23T01:17:06.565Z,99910.02
2022-10-23T01:20:31.951Z,99909.90
2022-10-23T01:24:09.813Z,99913.97
2022-10-23T01:27:36.734Z,99911.06
2022-10-23T01:30:44.830Z,99916.21
2022-10-23T01:33:55.583Z,99915.98
2022-10-23T01:37:02.438Z,99916.53
2022-10-23T01:40:10.441Z,99910.66
2022-10-23T01:43:22.808Z,99916.16
2022-10-23T01:46:27.725Z,99920.67
2022-10-23T01:49:33.872Z,99919.83
2022-10-23T01:52:37.563Z,99916.39
2022-10-23T01:58:53.922Z,99920.30
2022-10-23T02:01:59.791Z,99922.95
2022-10-23T02:05:08.686Z,99921.94
2022-10-23T02:08:12.082Z,99922.79
2022-10-23T02:11:21.351Z,99917.98
2022-10-23T02:14:44.413Z,99923.04
2022-10-23T02:18:03.350Z,99925.88
2022-10-23T02:21:11.340Z,99926.45
2022-10-23T02:24:18.326Z,99926.96
2022-10-23T02:27:35.496Z,99926.45
2022-10-23T02:30:43.054Z,99930.30
2022-10-23T02:33:48.782Z,99932.48
2022-10-23T02:36:52.193Z,99926.15
2022-10-23T02:39:55.776Z,99923.33
2022-10-23T02:43:04.079Z,99927.20
2022-10-23T02:46:25.255Z,99924.81
2022-10-23T02:49:41.243Z,99928.16
2022-10-23T02:53:07.077Z,99930.06
2022-10-23T02:56:13.673Z,99931.55
2022-10-23T02:59:24.937Z,99936.52
2022-10-23T03:02:40.701Z,99932.98
2022-10-23T03:05:45.281Z,99935.11
2022-10-23T03:09:00.353Z,99936.26
2022-10-23T03:12:03.430Z,99936.83
2022-10-23T03:15:07.332Z,99934.41
2022-10-23T03:18:10.398Z,99937.52
2022-10-23T03:21:13.475Z,99935.14
2022-10-23T03:24:16.242Z,99935.27
2022-10-23T03:27:19.133Z,99938.40
2022-10-23T03:30:23.240Z,99934.82
2022-10-23T03:33:26.080Z,99931.34
2022-10-23T03:36:28.948Z,99927.70
2022-10-23T03:39:31.823Z,99929.29
2022-10-23T03:42:34.689Z,99931.09
2022-10-23T03:45:38.746Z,99931.86
2022-10-23T03:48:42.373Z,99933.27
2022-10-23T03:51:52.121Z,99938.98
2022-10-23T03:54:54.968Z,99935.44
2022-10-23T03:57:57.940Z,99934.23
2022-10-23T04:01:00.869Z,99936.45
2022-10-23T04:04:03.783Z,99937.15
2022-10-23T04:07:06.758Z,99943.36
2022-10-23T04:10:10.060Z,99937.91
2022-10-23T04:13:13.214Z,99938.86
2022-10-23T04:16:16.400Z,99943.52
2022-10-23T04:19:19.566Z,99945.52
2022-10-23T04:22:24.791Z,99940.94
2022-10-23T04:25:30.422Z,99944.05
2022-10-23T04:28:33.599Z,99941.38
2022-10-23T04:31:36.357Z,99946.30
2022-10-23T04:34:39.134Z,99946.09
2022-10-23T04:37:42.007Z,99943.17
2022-10-23T04:40:45.280Z,99950.41
2022-10-23T04:43:48.156Z,99953.27
2022-10-23T04:46:51.026Z,99953.42
2022-10-23T04:49:53.890Z,99955.20
2022-10-23T04:52:57.907Z,99953.20
2022-10-23T04:56:01.270Z,99951.62
2022-10-23T05:02:12.348Z,99949.55
2022-10-23T05:05:15.305Z,99950.39
2022-10-23T05:08:18.391Z,99954.92
2022-10-23T05:11:21.556Z,99950.73
2022-10-23T05:14:24.627Z,99944.47
2022-10-23T05:17:32.719Z,99945.66
2022-10-23T05:20:38.148Z,99945.91
2022-10-23T05:23:44.782Z,99948.34
2022-10-23T05:26:47.774Z,99946.78
2022-10-23T05:29:50.908Z,99946.98
2022-10-23T05:32:54.946Z,99942.88
2022-10-23T05:35:59.046Z,99942.64
2022-10-23T05:39:02.531Z,99945.09
2022-10-23T05:42:05.396Z,99942.40
2022-10-23T05:45:08.792Z,99938.13
2022-10-23T05:48:22.768Z,99937.11
2022-10-23T05:51:38.130Z,99942.78
2022-10-23T05:54:40.928Z,99939.32
2022-10-23T05:57:44.313Z,99937.07
2022-10-23T06:00:47.486Z,99937.92
2022-10-23T06:03:51.579Z,99940.44
2022-10-23T06:06:54.354Z,99938.13
2022-10-23T06:09:57.117Z,99941.48
2022-10-23T06:12:59.989Z,99947.90
2022-10-23T06:16:11.150Z,99945.60
2022-10-23T06:19:14.527Z,99947.00
2022-10-23T06:22:17.702Z,99944.05
2022-10-23T06:25:21.907Z,99943.57
2022-10-23T06:28:25.134Z,99946.25
2022-10-23T06:31:28.461Z,99948.41
2022-10-23T06:34:31.640Z,99953.42
2022-10-23T06:37:34.833Z,99957.31
2022-10-23T06:40:38.508Z,99956.24
2022-10-23T06:43:41.783Z,99958.52
2022-10-23T06:46:47.485Z,99956.63
2022-10-23T06:49:50.286Z,99959.40
2022-10-23T06:52:54.090Z,99959.98
2022-10-23T06:56:01.156Z,99960.09
2022-10-23T06:59:07.765Z,99963.98
2022-10-23T07:02:11.082Z,99962.23
2022-10-23T07:05:14.093Z,99966.06
2022-10-23T07:08:17.023Z,99967.16
2022-10-23T07:11:19.893Z,99976.02
2022-10-23T07:14:22.659Z,99973.86
2022-10-23T07:17:56.945Z,99973.83
2022-10-23T07:21:00.127Z,99975.30
2022-10-23T07:24:04.117Z,99979.59
2022-10-23T07:27:07.412Z,99980.79
2022-10-23T07:30:11.490Z,99980.67
2022-10-23T07:33:14.899Z,99983.09
2022-10-23T07:36:18.871Z,99982.14
2022-10-23T07:39:23.851Z,99984.84
2022-10-23T07:42:28.196Z,99986.13
2022-10-23T07:45:31.268Z,99987.98
2022-10-23T07:48:34.757Z,99989.28
2022-10-23T07:51:38.860Z,99986.11
2022-10-23T07:54:43.675Z,99987.54
2022-10-23T07:57:47.873Z,99990.05
2022-10-23T08:00:56.549Z,99991.20
2022-10-23T08:04:01.281Z,99988.47
2022-10-23T08:07:04.436Z,99984.73
2022-10-23T08:10:08.153Z,99984.79
2022-10-23T08:13:13.630Z,99982.31
2022-10-23T08:16:16.851Z,99980.17
2022-10-23T08:19:19.824Z,99978.67
2022-10-23T08:22:22.795Z,99980.61
2022-10-23T08:25:26.129Z,99980.27
2022-10-23T08:28:29.354Z,99985.21
2022-10-23T08:31:32.737Z,99983.05
2022-10-23T08:34:38.166Z,99976.95
2022-10-23T08:37:41.665Z,99974.08
2022-10-23T08:41:29.038Z,99972.51
2022-10-23T08:44:38.044Z,99984.08
2022-10-23T08:47:50.431Z,99985.70
2022-10-23T08:50:59.419Z,99992.97
2022-10-23T08:54:16.145Z,99996.39
2022-10-23T08:57:24.259Z,99996.00
2022-10-23T09:00:28.213Z,100001.88
2022-10-23T09:03:31.389Z,99996.58
2022-10-23T09:06:41.030Z,100000.53
2022-10-23T09:09:50.842Z,99998.39
2022-10-23T09:12:57.408Z,99999.65
2022-10-23T09:16:21.855Z,99997.77
2022-10-23T09:19:28.658Z,99993.82
2022-10-23T09:22:32.754Z,99992.89
2022-10-23T09:25:40.288Z,99996.57
2022-10-23T09:28:53.048Z,99996.98
2022-10-23T09:31:59.638Z,99989.29
2022-10-23T09:35:03.019Z,99990.09
2022-10-23T09:38:06.014Z,99988.75
2022-10-23T09:41:21.142Z,99986.82
2022-10-23T09:44:29.946Z,99987.27
2022-10-23T09:47:33.130Z,99989.77
2022-10-23T09:50:36.402Z,99982.36
2022-10-23T09:53:48.497Z,99989.37
2022-10-23T09:56:54.479Z,99980.41
2022-10-23T10:00:04.455Z,99974.98
2022-10-23T10:03:19.714Z,99968.26
2022-10-23T10:06:34.277Z,99965.38
2022-10-23T10:09:37.420Z,99969.34
2022-10-23T10:12:51.651Z,99966.72
2022-10-23T10:16:01.580Z,99976.95
2022-10-23T10:19:10.589Z,99975.61
2022-10-23T10:22:25.844Z,99976.10
2022-10-23T10:25:41.811Z,99971.47
2022-10-23T10:29:02.595Z,99965.26
2022-10-23T10:32:13.442Z,99965.86
2022-10-23T10:35:20.814Z,99964.18
2022-10-23T10:38:23.787Z,99961.24
2022-10-23T10:41:45.587Z,99957.58
2022-10-23T10:45:19.362Z,99955.34
2022-10-23T10:48:31.553Z,99953.84
2022-10-23T10:52:10.690Z,99948.23
2022-10-23T10:55:13.720Z,99940.91
2022-10-23T10:58:16.635Z,99934.70
2022-10-23T11:01:27.597Z,99930.14
2022-10-23T11:04:37.576Z,99924.58
2022-10-23T11:07:55.790Z,99916.82
2022-10-23T11:11:08.079Z,99909.31
2022-10-23T11:14:20.582Z,99902.36
2022-10-23T11:17:37.968Z,99900.39
2022-10-23T11:21:08.383Z,99899.75
2022-10-23T11:24:17.525Z,99891.04
2022-10-23T11:27:32.559Z,99894.90
2022-10-23T11:31:08.227Z,99890.16
2022-10-23T11:34:36.498Z,99896.25
2022-10-23T11:37:39.679Z,99893.33
2022-10-23T11:44:05.364Z,99879.10
2022-10-23T11:48:02.480Z,99878.73
2022-10-23T11:51:06.365Z,99876.52
2022-10-23T11:54:12.303Z,99871.65
2022-10-23T11:57:17.869Z,99870.17
2022-10-23T12:00:22.984Z,99862.77
2022-10-23T12:03:32.690Z,99859.35
2022-10-23T12:11:05.608Z,99841.98
2022-10-23T12:14:29.677Z,99835.94
2022-10-23T12:17:41.621Z,99830.08
2022-10-23T12:21:05.590Z,99827.02
2022-10-23T12:24:22.591Z,99818.29
2022-10-23T12:27:37.838Z,99820.39
2022-10-23T12:31:07.007Z,99823.22
2022-10-23T12:34:19.288Z,99827.70
2022-10-23T12:37:40.689Z,99823.59
2022-10-23T12:40:52.555Z,99817.28
2022-10-23T12:44:01.566Z,99812.30
2022-10-23T12:47:05.051Z,99812.94
2022-10-23T12:50:25.933Z,99809.61
2022-10-23T12:53:28.915Z,99807.92
2022-10-23T12:56:37.198Z,99805.95
2022-10-23T12:59:43.035Z,99799.88
2022-10-23T13:02:46.531Z,99792.45
2022-10-23T13:05:55.396Z,99789.95
2022-10-23T13:08:59.059Z,99789.01
2022-10-23T13:12:05.187Z,99790.31
2022-10-23T13:15:08.237Z,99785.27
2022-10-23T13:18:14.736Z,99781.13
2022-10-23T13:21:26.523Z,99784.11
2022-10-23T13:24:31.575Z,99780.36
2022-10-23T13:27:35.164Z,99781.55
2022-10-23T13:30:42.970Z,99781.36
2022-10-23T13:33:53.898Z,99781.39
2022-10-23T13:37:29.877Z,99782.02
2022-10-23T13:40:33.716Z,99782.36
2022-10-23T13:43:36.995Z,99792.05
2022-10-23T13:46:40.583Z,99787.06
2022-10-23T13:49:43.553Z,99776.44
2022-10-23T13:52:46.856Z,99776.74
2022-10-23T13:55:56.264Z,99776.34
2022-10-23T13:59:01.689Z,99775.52
2022-10-23T14:02:18.211Z,99763.31
2022-10-23T14:05:24.513Z,99763.42
2022-10-23T14:08:27.482Z,99764.60
2022-10-23T14:11:31.176Z,99765.91
2022-10-23T14:14:34.654Z,99761.14
2022-10-23T14:17:37.729Z,99763.63
2022-10-23T14:20:40.700Z,99756.88
2022-10-23T14:23:44.090Z,99750.84
2022-10-23T14:26:47.360Z,99752.40
2022-10-23T14:29:50.438Z,99751.98
2022-10-23T14:32:53.508Z,99750.51
2022-10-23T14:35:57.671Z,99746.03
2022-10-23T14:39:01.809Z,99741.96
2022-10-23T14:42:05.086Z,99736.86
2022-10-23T14:45:08.673Z,99734.95
2022-10-23T14:48:11.951Z,99735.69
2022-10-23T14:51:24.236Z,99739.59
2022-10-23T14:54:28.447Z,99737.50
2022-10-23T14:57:31.413Z,99731.28
2022-10-23T15:00:34.687Z,99728.45
2022-10-23T15:03:38.478Z,99725.25
2022-10-23T15:06:42.273Z,99725.65
2022-10-23T15:09:45.348Z,99716.45
2022-10-23T15:12:48.934Z,99718.20
2022-10-23T15:16:06.133Z,99718.39
2022-10-23T15:19:17.106Z,99715.15
2022-10-23T15:22:23.298Z,99720.41
2022-10-23T15:26:18.737Z,99722.95
2022-10-23T15:29:23.249Z,99718.54
2022-10-23T15:32:26.332Z,99717.08
2022-10-23T15:35:29.502Z,99721.99
2022-10-23T15:38:32.775Z,99718.65
2022-10-23T15:41:38.011Z,99716.63
2022-10-23T15:44:42.705Z,99715.41
2022-10-23T15:47:50.971Z,99712.05
2022-10-23T15:50:57.293Z,99712.17
2022-10-23T15:54:00.324Z,99710.87
2022-10-23T15:57:03.727Z,99712.77
2022-10-23T16:00:09.165Z,99714.30
2022-10-23T16:03:12.213Z,99709.84
2022-10-23T16:06:18.150Z,99707.83
2022-10-23T16:09:21.744Z,99702.45
2022-10-23T16:12:25.220Z,99698.73
2022-10-23T16:15:30.250Z,99690.27
2022-10-23T16:18:33.418Z,99699.48
2022-10-23T16:21:37.104Z,99701.01
2022-10-23T16:24:40.082Z,99692.43
2022-10-23T16:27:44.865Z,99689.30
2022-10-23T16:30:49.089Z,99684.81
2022-10-23T16:33:52.808Z,99686.73
2022-10-23T16:36:58.005Z,99684.02
2022-10-23T16:40:02.107Z,99678.16
2022-10-23T16:43:05.994Z,99680.95
2022-10-23T16:46:15.427Z,99679.73
2022-10-23T16:49:18.488Z,99680.41
2022-10-23T16:52:24.048Z,99685.80
2022-10-23T16:55:50.934Z,99681.46
2022-10-23T16:58:54.253Z,99684.52
2022-10-23T17:01:57.562Z,99679.98
2022-10-23T17:05:03.909Z,99685.08
2022-10-23T17:08:07.948Z,99685.11
2022-10-23T17:11:17.453Z,99680.98
2022-10-23T17:14:21.458Z,99668.73
2022-10-23T17:17:24.433Z,99660.23
2022-10-23T17:20:29.655Z,99657.41
2022-10-23T17:23:33.651Z,99656.91
2022-10-23T17:26:37.457Z,99661.87
2022-10-23T17:29:40.718Z,99666.40
2022-10-23T17:32:44.052Z,99662.45
2022-10-23T17:35:49.324Z,99651.41
2022-10-23T17:38:54.039Z,99649.89
2022-10-23T17:41:57.730Z,99645.20
2022-10-23T17:45:00.700Z,99642.08
2022-10-23T17:48:04.079Z,99637.61
2022-10-23T17:51:19.417Z,99635.11
2022-10-23T17:54:23.332Z,99638.05
2022-10-23T17:57:26.208Z,99633.02
2022-10-23T18:00:29.595Z,99632.83
2022-10-23T18:03:33.778Z,99636.63
2022-10-23T18:06:43.300Z,99637.13
2022-10-23T18:09:46.275Z,99636.38
2022-10-23T18:12:51.393Z,99625.30
2022-10-23T18:15:54.379Z,99617.73
2022-10-23T18:19:00.114Z,99610.09
2022-10-23T18:22:04.231Z,99598.13
2022-10-23T18:25:10.343Z,99590.23
2022-10-23T18:28:13.526Z,99585.88
2022-10-23T18:31:18.135Z,99584.97
2022-10-23T18:34:23.822Z,99581.96
2022-10-23T18:37:33.878Z,99578.06
2022-10-23T18:40:44.278Z,99575.40
2022-10-23T18:43:48.236Z,99576.41
2022-10-23T18:46:53.467Z,99576.91
2022-10-23T18:49:56.533Z,99582.05
2022-10-23T18:52:59.403Z,99577.13
2022-10-23T18:56:02.275Z,99580.08
2022-10-23T18:59:08.116Z,99578.52
2022-10-23T19:02:12.378Z,99580.02
2022-10-23T19:05:15.797Z,99581.58
2022-10-23T19:08:18.664Z,99577.03
2022-10-23T19:11:24.276Z,99576.86
2022-10-23T19:14:29.111Z,99573.33
2022-10-23T19:17:33.009Z,99573.69
2022-10-23T19:20:37.238Z,99576.27
2022-10-23T19:23:42.016Z,99564.91
2022-10-23T19:26:45.193Z,99563.73
2022-10-23T19:29:53.269Z,99555.60
2022-10-23T19:32:58.381Z,99546.98
2022-10-23T19:36:05.361Z,99540.70
2022-10-23T19:39:13.193Z,99536.41
2022-10-23T19:42:18.682Z,99528.58
2022-10-23T19:45:22.934Z,99524.19
2022-10-23T19:48:26.266Z,99527.55
2022-10-23T19:51:33.502Z,99525.34
2022-10-23T19:54:39.700Z,99523.88
2022-10-23T19:57:44.741Z,99518.24
2022-10-23T20:00:48.178Z,99512.92
2022-10-23T20:03:51.481Z,99522.10
2022-10-23T20:06:55.578Z,99527.01
2022-10-23T20:10:00.986Z,99524.47
2022-10-23T20:13:18.766Z,99517.52
2022-10-23T20:16:25.921Z,99512.30
2022-10-23T20:19:29.345Z,99523.31
2022-10-23T20:22:32.422Z,99533.73
2022-10-23T20:25:35.907Z,99524.52
2022-10-23T20:28:39.488Z,99511.67
2022-10-23T20:31:43.735Z,99514.11
2022-10-23T20:34:46.565Z,99508.79
2022-10-23T20:37:51.226Z,99491.45
2022-10-23T20:41:27.198Z,99492.64
2022-10-23T20:44:33.128Z,99497.64
2022-10-23T20:47:36.313Z,99487.79
2022-10-23T20:50:39.183Z,99470.06
2022-10-23T20:53:44.228Z,99449.84
2022-10-23T20:56:47.694Z,99444.04
2022-10-23T20:59:53.408Z,99448.77
2022-10-23T21:02:56.601Z,99453.96
2022-10-23T21:06:08.444Z,99460.98
2022-10-23T21:09:11.962Z,99462.16
2022-10-23T21:12:14.830Z,99462.42
2022-10-23T21:15:18.414Z,99460.75
2022-10-23T21:18:41.070Z,99443.38
2022-10-23T21:21:47.206Z,99437.05
2022-10-23T21:24:50.050Z,99440.09
2022-10-23T21:27:53.137Z,99448.61
2022-10-23T21:30:57.018Z,99447.81
2022-10-23T21:34:01.180Z,99450.61
2022-10-23T21:37:14.121Z,99445.50
2022-10-23T21:40:19.444Z,99435.94
2022-10-23T21:43:22.316Z,99426.81
2022-10-23T21:46:26.510Z,99418.99
2022-10-23T21:49:29.380Z,99414.64
2022-10-23T21:52:33.178Z,99409.70
2022-10-23T21:55:36.244Z,99413.40
2022-10-23T21:58:39.115Z,99420.67
2022-10-23T22:01:44.422Z,99421.45
2022-10-23T22:04:47.414Z,99417.47
2022-10-23T22:07:50.283Z,99418.14
2022-10-23T22:10:53.564Z,99419.69
2022-10-23T22:13:56.799Z,99419.59
2022-10-23T22:16:59.714Z,99426.89
2022-10-23T22:20:02.586Z,99425.64
2022-10-23T22:23:06.885Z,99424.59
2022-10-23T22:26:23.122Z,99432.02
2022-10-23T22:29:29.874Z,99432.03
2022-10-23T22:32:34.939Z,99438.16
2022-10-23T22:35:37.812Z,99441.88
2022-10-23T22:38:41.498Z,99453.77
2022-10-23T22:41:44.465Z,99459.92
2022-10-23T22:44:47.236Z,99458.58
2022-10-23T22:47:50.113Z,99460.73
2022-10-23T22:50:54.108Z,99464.01
2022-10-23T22:53:58.737Z,99455.58
2022-10-23T22:57:01.583Z,99451.45
2022-10-23T23:00:07.112Z,99449.39
2022-10-23T23:03:10.059Z,99451.77
2022-10-23T23:06:14.186Z,99454.37
2022-10-23T23:09:18.212Z,99456.13
2022-10-23T23:12:21.255Z,99474.61
2022-10-23T23:15:24.017Z,99480.12
2022-10-23T23:18:27.809Z,99481.16
2022-10-23T23:21:31.851Z,99483.40
2022-10-23T23:24:34.880Z,99485.02
2022-10-23T23:27:37.748Z,99487.97
2022-10-23T23:30:42.936Z,99485.11
2022-10-23T23:33:46.251Z,99483.39
2022-10-23T23:36:49.226Z,99482.48
2022-10-23T23:39:51.991Z,99481.95
2022-10-23T23:42:55.380Z,99478.60
2022-10-23T23:45:59.470Z,99477.53
2022-10-23T23:49:02.442Z,99468.47
2022-10-23T23:52:05.311Z,99462.91
2022-10-23T23:55:08.491Z,99459.59
2022-10-23T23:58:12.285Z,99460.35
